Time;durP1;ratioP1;P1;durP2;ratioP2;P2;SDS_P1;SDS_P2;PMS_P1;PMS_P2;Temp;Humidity;BMP_temperature;BMP_pressure;BME280_temperature;BME280_humidity;BME280_pressure;Samples;Min_cycle;Max_cycle;Signal;HPM_P1;HPM_P2
2022/06/23 00:01:11;;;;;;;9.68;4.95;;;;;16.40;93862.00;;;;7392905;19;20174;-77
2022/06/23 00:03:48;;;;;;;9.75;4.95;;;;;16.40;93856.00;;;;7389019;19;20141;-77
2022/06/23 00:06:41;;;;;;;16.10;4.40;;;;;16.30;93852.00;;;;7390115;19;20137;-77
2022/06/23 00:09:48;;;;;;;12.25;4.82;;;;;16.20;93855.00;;;;7392972;19;20159;-78
2022/06/23 00:12:35;;;;;;;10.50;4.65;;;;;16.20;93852.00;;;;7391131;19;20129;-77
2022/06/23 00:15:15;;;;;;;14.88;4.75;;;;;16.10;93862.00;;;;7392537;19;20129;-77
2022/06/23 00:17:46;;;;;;;10.30;4.70;;;;;16.00;93865.00;;;;7390522;19;20133;-77
2022/06/23 00:20:31;;;;;;;12.32;4.78;;;;;16.00;93872.00;;;;7391613;19;20148;-78
2022/06/23 00:23:09;;;;;;;12.80;4.80;;;;;15.90;93864.00;;;;7391948;19;20988;-77
2022/06/23 00:26:04;;;;;;;10.77;4.13;;;;;15.80;93864.00;;;;7388976;19;20122;-77
2022/06/23 00:28:45;;;;;;;11.40;4.15;;;;;15.80;93861.00;;;;7390447;19;20149;-77
2022/06/23 00:31:25;;;;;;;12.40;4.57;;;;;15.70;93854.00;;;;7400169;19;20136;-77
2022/06/23 00:34:01;;;;;;;7.13;4.43;;;;;15.70;93859.00;;;;7395898;19;20587;-77
2022/06/23 00:36:47;;;;;;;8.68;4.32;;;;;15.60;93847.00;;;;7396263;19;20741;-78
2022/06/23 00:39:42;;;;;;;11.45;4.63;;;;;15.60;93852.00;;;;7398885;19;20144;-78
2022/06/23 00:42:34;;;;;;;11.68;4.82;;;;;15.60;93849.00;;;;7397328;19;20160;-77
2022/06/23 00:45:24;;;;;;;8.68;4.80;;;;;15.60;93844.00;;;;7398127;19;20749;-76
2022/06/23 00:48:22;;;;;;;12.77;4.85;;;;;15.60;93852.00;;;;7395412;19;20218;-79
2022/06/23 00:51:13;;;;;;;12.30;4.82;;;;;15.50;93858.00;;;;7397824;19;20136;-78
2022/06/23 00:54:03;;;;;;;14.45;5.13;;;;;15.50;93864.00;;;;7396067;19;20135;-79
2022/06/23 00:57:13;;;;;;;15.23;4.95;;;;;15.40;93868.00;;;;7395697;19;20479;-79
2022/06/23 01:00:19;;;;;;;10.30;4.30;;;;;15.40;93861.00;;;;7395607;19;20156;-79
2022/06/23 01:03:03;;;;;;;15.55;4.97;;;;;15.40;93870.00;;;;7396552;19;20153;-74
2022/06/23 01:05:52;;;;;;;10.48;4.43;;;;;15.40;93880.00;;;;7393677;19;20144;-74
2022/06/23 01:09:07;;;;;;;13.45;4.65;;;;;15.40;93872.00;;;;7394956;19;20163;-76
2022/06/23 01:11:59;;;;;;;13.10;4.93;;;;;15.30;93876.00;;;;7391886;19;20749;-74
2022/06/23 01:15:00;;;;;;;16.88;4.82;;;;;15.40;93871.00;;;;7396005;19;20638;-75
2022/06/23 01:17:50;;;;;;;16.15;5.43;;;;;15.60;93873.00;;;;7394019;19;20132;-74
2022/06/23 01:20:35;;;;;;;11.68;4.55;;;;;15.50;93878.00;;;;7394272;19;20144;-75
2022/06/23 01:23:37;;;;;;;14.68;4.93;;;;;15.50;93876.00;;;;7394145;19;20576;-76
2022/06/23 01:26:45;;;;;;;12.13;5.10;;;;;15.50;93882.00;;;;7394181;19;20121;-75
2022/06/23 01:29:43;;;;;;;19.27;5.13;;;;;15.50;93874.00;;;;7394341;19;20167;-74
2022/06/23 01:32:25;;;;;;;22.27;5.53;;;;;15.50;93876.00;;;;7393147;19;20588;-75
2022/06/23 01:35:18;;;;;;;12.20;4.78;;;;;15.40;93879.00;;;;7393335;19;20164;-74
2022/06/23 01:37:49;;;;;;;12.07;4.63;;;;;15.20;93884.00;;;;7394367;19;20487;-74
2022/06/23 01:40:29;;;;;;;16.75;5.15;;;;;15.30;93886.00;;;;7393723;19;20467;-74
2022/06/23 01:43:10;;;;;;;17.20;5.18;;;;;15.40;93887.00;;;;7395740;19;20149;-75
2022/06/23 01:46:02;;;;;;;10.38;4.40;;;;;15.50;93883.00;;;;7393870;19;20144;-74
2022/06/23 01:48:52;;;;;;;14.43;5.53;;;;;15.70;93886.00;;;;7395193;19;20133;-75
2022/06/23 01:51:34;;;;;;;10.63;5.18;;;;;15.60;93882.00;;;;7394170;19;20153;-75
2022/06/23 01:54:20;;;;;;;16.17;5.25;;;;;15.50;93885.00;;;;7392864;19;20494;-75
2022/06/23 01:57:31;;;;;;;12.48;4.53;;;;;15.50;93891.00;;;;7391781;19;20133;-74
2022/06/23 02:00:14;;;;;;;16.00;5.03;;;;;15.50;93890.00;;;;7393441;19;20155;-74
2022/06/23 02:03:00;;;;;;;18.48;4.95;;;;;15.40;93880.00;;;;7393678;19;20150;-74
2022/06/23 02:05:44;;;;;;;11.45;5.03;;;;;15.50;93890.00;;;;7392846;19;20599;-74
2022/06/23 02:08:49;;;;;;;14.65;5.63;;;;;15.50;93884.00;;;;7394662;19;20156;-75
2022/06/23 02:11:45;;;;;;;11.45;5.60;;;;;15.50;93879.00;;;;7395455;19;20137;-74
2022/06/23 02:14:39;;;;;;;11.40;5.38;;;;;15.60;93878.00;;;;7397758;19;20563;-74
2022/06/23 02:18:00;;;;;;;16.08;5.53;;;;;15.50;93880.00;;;;7395416;19;20121;-75
2022/06/23 02:20:56;;;;;;;15.60;4.90;;;;;15.50;93880.00;;;;7392191;19;20141;-74
2022/06/23 02:23:33;;;;;;;13.07;5.55;;;;;15.50;93878.00;;;;7394947;19;20525;-74
2022/06/23 02:26:32;;;;;;;10.75;5.07;;;;;15.40;93880.00;;;;7393971;19;20129;-75
2022/06/23 02:29:18;;;;;;;14.32;4.95;;;;;15.30;93891.00;;;;7392490;19;20149;-75
2022/06/23 02:32:05;;;;;;;10.90;4.63;;;;;15.20;93894.00;;;;7392065;19;20481;-75
2022/06/23 02:34:55;;;;;;;10.20;3.90;;;;;15.10;93900.00;;;;7392390;19;20124;-74
2022/06/23 02:37:47;;;;;;;10.23;4.72;;;;;15.10;93896.00;;;;7391581;19;20169;-74
2022/06/23 02:40:41;;;;;;;11.80;4.43;;;;;15.10;93904.00;;;;7390912;19;20164;-75
2022/06/23 02:43:39;;;;;;;14.60;5.30;;;;;15.00;93905.00;;;;7391931;19;20489;-75
2022/06/23 02:46:44;;;;;;;12.07;5.03;;;;;15.10;93903.00;;;;7390763;19;20129;-72
2022/06/23 02:49:37;;;;;;;12.23;5.15;;;;;15.30;93906.00;;;;7391687;19;20125;-74
2022/06/23 02:52:46;;;;;;;14.15;5.50;;;;;15.40;93907.00;;;;7390445;19;20592;-75
2022/06/23 02:55:35;;;;;;;11.77;4.75;;;;;15.30;93897.00;;;;7391365;19;20159;-74
2022/06/23 02:58:17;;;;;;;10.40;5.80;;;;;15.40;93904.00;;;;7391852;19;20124;-74
2022/06/23 03:01:00;;;;;;;13.80;5.82;;;;;15.30;93897.00;;;;7389721;19;20136;-75
2022/06/23 03:03:48;;;;;;;9.93;5.47;;;;;15.30;93896.00;;;;7392080;19;20128;-74
2022/06/23 03:06:48;;;;;;;10.55;5.50;;;;;15.30;93902.00;;;;7388366;19;20147;-77
2022/06/23 03:09:54;;;;;;;18.13;5.57;;;;;15.20;93911.00;;;;7389273;19;20200;-74
2022/06/23 03:12:49;;;;;;;13.73;5.45;;;;;15.00;93910.00;;;;7389700;19;20164;-74
2022/06/23 03:15:21;;;;;;;13.95;5.25;;;;;15.10;93908.00;;;;7389704;19;20129;-75
2022/06/23 03:18:06;;;;;;;8.23;4.80;;;;;15.10;93912.00;;;;7390558;19;20141;-76
2022/06/23 03:20:52;;;;;;;13.82;5.53;;;;;15.30;93913.00;;;;7391930;19;20128;-74
2022/06/23 03:23:45;;;;;;;13.05;5.40;;;;;15.30;93914.00;;;;7391461;19;20161;-74
2022/06/23 03:26:49;;;;;;;15.32;5.28;;;;;15.20;93909.00;;;;7388972;19;20133;-74
2022/06/23 03:29:43;;;;;;;15.43;5.35;;;;;15.20;93913.00;;;;7390916;19;20151;-74
2022/06/23 03:32:33;;;;;;;18.30;5.68;;;;;15.30;93916.00;;;;7389004;19;20664;-74
2022/06/23 03:35:41;;;;;;;12.45;5.28;;;;;15.30;93926.00;;;;7389318;19;20140;-72
2022/06/23 03:41:42;;;;;;;14.60;5.45;;;;;15.30;93925.00;;;;7390253;19;20141;-74
2022/06/23 03:44:21;;;;;;;18.58;6.22;;;;;15.40;93931.00;;;;7389077;19;20128;-74
2022/06/23 03:46:59;;;;;;;9.60;5.50;;;;;15.50;93921.00;;;;7388673;19;20141;-74
2022/06/23 03:50:06;;;;;;;14.63;5.70;;;;;15.60;93914.00;;;;7390359;19;20132;-75
2022/06/23 03:52:48;;;;;;;12.77;5.57;;;;;15.60;93923.00;;;;7386770;19;20201;-74
2022/06/23 03:55:30;;;;;;;13.38;5.22;;;;;15.60;93916.00;;;;7389990;19;20156;-74
2022/06/23 03:58:19;;;;;;;16.00;5.95;;;;;15.70;93921.00;;;;7389835;19;20176;-74
2022/06/23 04:01:01;;;;;;;21.60;5.70;;;;;15.90;93924.00;;;;7389715;19;20164;-73
2022/06/23 04:04:02;;;;;;;12.68;5.47;;;;;15.90;93931.00;;;;7381133;19;20137;-74
2022/06/23 04:06:39;;;;;;;14.73;5.30;;;;;16.20;93929.00;;;;7397517;19;20141;-75
2022/06/23 04:09:32;;;;;;;14.65;5.88;;;;;16.20;93936.00;;;;7395605;19;20172;-74
2022/06/23 04:12:16;;;;;;;11.88;5.20;;;;;16.30;93941.00;;;;7393155;19;20598;-74
2022/06/23 04:15:17;;;;;;;11.68;4.55;;;;;16.40;93934.00;;;;7396126;19;20137;-74
2022/06/23 04:17:46;;;;;;;11.75;5.00;;;;;16.40;93939.00;;;;7396273;19;20475;-75
2022/06/23 04:20:36;;;;;;;15.02;4.68;;;;;16.50;93932.00;;;;7396595;19;20140;-74
2022/06/23 04:23:33;;;;;;;12.48;4.40;;;;;16.40;93926.00;;;;7396084;19;20646;-74
2022/06/23 04:26:35;;;;;;;9.65;4.45;;;;;16.50;93931.00;;;;7395729;19;20132;-74
2022/06/23 04:29:11;;;;;;;13.40;4.45;;;;;16.60;93932.00;;;;7395776;19;20253;-74
2022/06/23 04:32:02;;;;;;;9.52;4.28;;;;;16.80;93934.00;;;;7395173;19;20129;-73
2022/06/23 04:34:35;;;;;;;10.90;4.85;;;;;16.90;93935.00;;;;7396081;19;20143;-74
2022/06/23 04:37:23;;;;;;;11.75;4.40;;;;;17.00;93938.00;;;;7396136;19;20153;-74
2022/06/23 04:40:00;;;;;;;12.13;4.05;;;;;17.20;93936.00;;;;7396414;19;20133;-75
2022/06/23 04:42:35;;;;;;;9.70;3.85;;;;;17.30;93927.00;;;;7392626;19;20207;-74
2022/06/23 04:45:27;;;;;;;10.40;3.47;;;;;17.40;93934.00;;;;7398297;19;20619;-74
2022/06/23 04:48:08;;;;;;;11.13;3.97;;;;;17.50;93933.00;;;;7397204;19;20125;-75
2022/06/23 04:50:53;;;;;;;7.95;3.63;;;;;17.60;93938.00;;;;7399006;19;20181;-75
2022/06/23 04:53:39;;;;;;;12.07;3.65;;;;;17.80;93928.00;;;;7395730;19;20135;-73
2022/06/23 04:56:24;;;;;;;9.50;3.20;;;;;17.90;93938.00;;;;7394341;19;20624;-75
2022/06/23 04:59:25;;;;;;;9.68;3.20;;;;;17.90;93939.00;;;;7396120;19;20140;-77
2022/06/23 05:01:55;;;;;;;9.20;3.55;;;;;18.00;93928.00;;;;7396992;19;20136;-76
2022/06/23 05:04:39;;;;;;;8.65;3.35;;;;;18.20;93934.00;;;;7398538;19;20137;-74
2022/06/23 05:07:18;;;;;;;12.18;3.78;;;;;18.30;93936.00;;;;7398335;19;20612;-72
2022/06/23 05:10:06;;;;;;;11.23;3.70;;;;;18.50;93935.00;;;;7392897;19;20183;-74
2022/06/23 05:12:47;;;;;;;8.23;3.47;;;;;18.50;93934.00;;;;7397226;19;20133;-73
2022/06/23 05:15:48;;;;;;;10.45;3.55;;;;;18.60;93931.00;;;;7393933;19;20129;-74
2022/06/23 05:18:35;;;;;;;8.57;3.60;;;;;18.70;93932.00;;;;7396215;19;20224;-74
2022/06/23 05:21:18;;;;;;;11.02;3.33;;;;;18.90;93926.00;;;;7394808;19;20583;-73
2022/06/23 05:24:26;;;;;;;10.57;3.17;;;;;19.00;93931.00;;;;7399061;19;20135;-73
2022/06/23 05:27:08;;;;;;;5.90;3.38;;;;;19.10;93933.00;;;;7396362;19;20128;-73
2022/06/23 05:29:44;;;;;;;10.65;3.60;;;;;19.20;93929.00;;;;7398818;19;20147;-73
2022/06/23 05:32:29;;;;;;;7.00;2.92;;;;;19.20;93928.00;;;;7398362;19;20153;-72
2022/06/23 05:35:06;;;;;;;9.52;3.28;;;;;19.30;93932.00;;;;7395705;19;20144;-73
2022/06/23 05:38:05;;;;;;;9.38;3.15;;;;;19.40;93936.00;;;;7394858;19;20125;-73
2022/06/23 05:40:55;;;;;;;8.38;3.60;;;;;19.40;93934.00;;;;7399492;19;20129;-73
2022/06/23 05:43:37;;;;;;;6.80;3.42;;;;;19.40;93934.00;;;;7397986;19;20484;-73
2022/06/23 05:46:06;;;;;;;8.60;3.40;;;;;19.60;93940.00;;;;7398673;19;20137;-73
2022/06/23 05:48:47;;;;;;;13.02;4.18;;;;;19.60;93941.00;;;;7399118;19;20188;-73
2022/06/23 05:51:21;;;;;;;9.73;3.95;;;;;19.80;93941.00;;;;7396612;19;20212;-73
2022/06/23 05:54:01;;;;;;;11.20;4.15;;;;;19.90;93943.00;;;;7395703;19;20501;-73
2022/06/23 05:56:54;;;;;;;8.93;3.95;;;;;19.90;93943.00;;;;7394868;19;20129;-73
2022/06/23 05:59:37;;;;;;;9.68;3.85;;;;;20.10;93942.00;;;;7395569;19;20144;-72
2022/06/23 06:02:10;;;;;;;12.23;3.75;;;;;20.30;93945.00;;;;7396926;19;20164;-75
2022/06/23 06:04:53;;;;;;;12.48;3.60;;;;;20.50;93935.00;;;;7398986;19;20525;-73
2022/06/23 06:07:26;;;;;;;8.48;3.92;;;;;20.40;93938.00;;;;7399198;19;20145;-73
2022/06/23 06:10:13;;;;;;;7.20;3.55;;;;;20.50;93936.00;;;;7396960;19;20164;-75
2022/06/23 06:12:49;;;;;;;12.50;3.28;;;;;20.50;93937.00;;;;7399988;19;20152;-71
2022/06/23 06:15:31;;;;;;;12.13;3.55;;;;;20.50;93935.00;;;;7396505;19;20482;-72
2022/06/23 06:18:07;;;;;;;9.52;3.47;;;;;20.60;93926.00;;;;7396488;19;20606;-74
2022/06/23 06:20:41;;;;;;;13.80;3.70;;;;;20.90;93943.00;;;;7399980;19;20137;-73
2022/06/23 06:23:19;;;;;;;11.68;3.53;;;;;21.00;93933.00;;;;7398211;19;20125;-72
2022/06/23 06:25:54;;;;;;;11.18;3.40;;;;;21.20;93936.00;;;;7396753;19;20222;-74
2022/06/23 06:28:33;;;;;;;9.13;3.25;;;;;21.30;93925.00;;;;7396530;19;20153;-75
2022/06/23 06:31:22;;;;;;;11.30;3.08;;;;;21.50;93926.00;;;;7398373;19;20148;-78
2022/06/23 06:34:05;;;;;;;10.25;3.13;;;;;21.60;93930.00;;;;7398291;19;20587;-75
2022/06/23 06:36:43;;;;;;;7.72;2.75;;;;;21.70;93931.00;;;;7398062;19;20607;-74
2022/06/23 06:39:21;;;;;;;8.82;2.95;;;;;21.80;93927.00;;;;7394176;19;20148;-74
2022/06/23 06:42:01;;;;;;;11.25;3.30;;;;;22.00;93942.00;;;;7396483;19;20157;-75
2022/06/23 06:44:30;;;;;;;7.97;2.72;;;;;22.20;93922.00;;;;7397289;19;20144;-75
2022/06/23 06:47:04;;;;;;;8.68;2.42;;;;;22.00;93928.00;;;;7396478;19;20475;-73
2022/06/23 06:49:38;;;;;;;9.73;3.65;;;;;22.00;93930.00;;;;7395998;19;20158;-74
2022/06/23 06:52:13;;;;;;;9.75;2.83;;;;;22.10;93927.00;;;;7396078;19;20498;-72
2022/06/23 06:54:48;;;;;;;12.57;3.03;;;;;22.20;93935.00;;;;7395221;19;20623;-74
2022/06/23 06:57:47;;;;;;;8.05;3.03;;;;;22.10;93935.00;;;;7394383;19;20141;-72
2022/06/23 07:00:36;;;;;;;8.43;3.45;;;;;22.30;93946.00;;;;7394324;19;20144;-73
2022/06/23 07:03:15;;;;;;;11.48;3.30;;;;;22.60;93945.00;;;;7391267;19;20251;-72
2022/06/23 07:05:53;;;;;;;14.18;2.90;;;;;22.70;93941.00;;;;7390106;19;20152;-73
2022/06/23 07:08:47;;;;;;;7.22;2.67;;;;;22.70;93952.00;;;;7394853;19;20663;-73
2022/06/23 07:11:36;;;;;;;8.25;2.88;;;;;23.00;93947.00;;;;7389330;19;20180;-73
2022/06/23 07:14:52;;;;;;;9.05;2.97;;;;;23.10;93949.00;;;;7392327;19;20175;-73
2022/06/23 07:17:37;;;;;;;8.93;2.80;;;;;23.10;93953.00;;;;7390831;19;20151;-73
2022/06/23 07:20:26;;;;;;;8.18;3.10;;;;;23.10;93941.00;;;;7393361;19;20650;-72
2022/06/23 07:23:03;;;;;;;8.55;2.72;;;;;23.20;93947.00;;;;7390216;19;20546;-72
2022/06/23 07:25:46;;;;;;;11.43;2.78;;;;;23.20;93941.00;;;;7391325;19;20149;-73
2022/06/23 07:28:26;;;;;;;9.48;3.25;;;;;23.40;93932.00;;;;7393467;19;20144;-73
2022/06/23 07:31:20;;;;;;;7.97;2.53;;;;;23.60;93940.00;;;;7393892;19;20614;-73
2022/06/23 07:33:59;;;;;;;6.28;2.88;;;;;23.80;93932.00;;;;7395645;19;20514;-72
2022/06/23 07:36:50;;;;;;;5.78;2.35;;;;;23.90;93931.00;;;;7395991;19;20513;-73
2022/06/23 07:39:20;;;;;;;9.60;2.90;;;;;24.00;93927.00;;;;7396453;19;20140;-71
2022/06/23 07:42:19;;;;;;;5.75;2.55;;;;;23.90;93927.00;;;;7400047;19;20478;-74
2022/06/23 07:45:02;;;;;;;7.47;2.60;;;;;23.90;93930.00;;;;7402420;19;20164;-72
2022/06/23 07:47:42;;;;;;;7.90;2.47;;;;;24.00;93932.00;;;;7400774;19;20157;-73
2022/06/23 07:50:11;;;;;;;4.60;2.55;;;;;24.00;93928.00;;;;7399328;19;20152;-73
2022/06/23 07:52:50;;;;;;;9.07;2.85;;;;;24.00;93926.00;;;;7402695;19;20140;-73
2022/06/23 07:55:25;;;;;;;6.00;2.65;;;;;24.10;93928.00;;;;7395064;19;20141;-71
2022/06/23 07:58:21;;;;;;;10.35;2.30;;;;;23.70;93925.00;;;;7396483;19;20160;-73
2022/06/23 08:00:55;;;;;;;8.15;2.15;;;;;23.70;93934.00;;;;7401069;19;20148;-74
2022/06/23 08:03:34;;;;;;;9.32;2.95;;;;;23.70;93940.00;;;;7399070;19;20155;-74
2022/06/23 08:06:06;;;;;;;9.82;2.63;;;;;24.00;93939.00;;;;7399116;19;20161;-73
2022/06/23 08:08:44;;;;;;;4.50;2.30;;;;;23.80;93944.00;;;;7400490;19;20496;-72
2022/06/23 08:14:42;;;;;;;11.30;2.85;;;;;24.20;93937.00;;;;7402033;19;20478;-73
2022/06/23 08:17:16;;;;;;;10.50;2.70;;;;;24.40;93936.00;;;;7397173;19;20152;-73
2022/06/23 08:19:59;;;;;;;5.75;2.38;;;;;24.50;93928.00;;;;7399247;19;20152;-73
2022/06/23 08:22:39;;;;;;;9.98;2.72;;;;;24.60;93927.00;;;;7399360;19;20293;-73
2022/06/23 08:25:16;;;;;;;8.38;2.55;;;;;24.40;93930.00;;;;7397533;19;20137;-73
2022/06/23 08:27:52;;;;;;;5.38;2.70;;;;;24.70;93915.00;;;;7398928;19;20192;-72
2022/06/23 08:30:28;;;;;;;10.63;3.10;;;;;25.00;93914.00;;;;7398943;19;20136;-73
2022/06/23 08:32:58;;;;;;;9.27;2.70;;;;;25.00;93910.00;;;;7395148;19;20535;-72
2022/06/23 08:35:29;;;;;;;11.60;2.63;;;;;25.10;93924.00;;;;7397445;19;20565;-74
2022/06/23 08:38:31;;;;;;;5.47;2.40;;;;;25.20;93913.00;;;;7396726;19;20216;-74
2022/06/23 08:41:26;;;;;;;5.93;2.40;;;;;25.70;93911.00;;;;7396691;19;20161;-74
2022/06/23 08:44:38;;;;;;;9.73;2.67;;;;;25.90;93911.00;;;;7399052;19;20140;-76
2022/06/23 08:47:15;;;;;;;8.63;2.72;;;;;26.00;93905.00;;;;7398101;19;20461;-74
2022/06/23 08:49:59;;;;;;;8.30;2.42;;;;;26.30;93904.00;;;;7398108;19;20180;-76
2022/06/23 08:52:44;;;;;;;8.05;2.38;;;;;26.20;93901.00;;;;7400741;19;20144;-74
2022/06/23 08:55:33;;;;;;;10.20;2.60;;;;;25.80;93905.00;;;;7399168;19;20137;-73
2022/06/23 08:58:38;;;;;;;7.13;2.97;;;;;25.80;93898.00;;;;7397013;19;20153;-73
2022/06/23 09:01:36;;;;;;;5.95;2.40;;;;;26.10;93901.00;;;;7396943;19;20144;-73
2022/06/23 09:04:16;;;;;;;7.55;2.33;;;;;25.90;93909.00;;;;7397520;19;20125;-74
2022/06/23 09:06:54;;;;;;;7.53;2.70;;;;;26.00;93899.00;;;;7395141;19;20137;-73
2022/06/23 09:09:54;;;;;;;7.32;2.47;;;;;26.00;93899.00;;;;7397881;19;20611;-74
2022/06/23 09:13:08;;;;;;;11.27;3.25;;;;;26.20;93897.00;;;;7396934;19;20148;-74
2022/06/23 09:16:01;;;;;;;10.90;2.72;;;;;26.50;93893.00;;;;7396430;19;20486;-74
2022/06/23 09:19:06;;;;;;;10.50;2.63;;;;;26.70;93889.00;;;;7395610;19;20152;-74
2022/06/23 09:21:56;;;;;;;13.73;2.90;;;;;26.80;93886.00;;;;7396905;19;20129;-74
2022/06/23 09:25:02;;;;;;;7.13;2.58;;;;;26.60;93891.00;;;;7397520;19;20490;-74
2022/06/23 09:28:16;;;;;;;5.78;2.63;;;;;26.90;93895.00;;;;7396227;19;20136;-73
2022/06/23 09:31:14;;;;;;;11.50;2.50;;;;;27.00;93890.00;;;;7399070;19;20637;-73
2022/06/23 09:33:48;;;;;;;8.15;2.80;;;;;27.20;93890.00;;;;7396236;19;20155;-73
2022/06/23 09:36:52;;;;;;;6.65;2.90;;;;;26.80;93891.00;;;;7398719;19;20137;-73
2022/06/23 09:39:29;;;;;;;10.30;2.83;;;;;26.90;93887.00;;;;7394614;19;20135;-77
2022/06/23 09:42:30;;;;;;;6.63;2.80;;;;;27.00;93884.00;;;;7394410;19;20144;-73
2022/06/23 09:45:08;;;;;;;9.05;2.70;;;;;27.20;93882.00;;;;7395488;19;20142;-72
2022/06/23 09:47:48;;;;;;;18.20;2.67;;;;;27.30;93874.00;;;;7394206;19;20141;-73
2022/06/23 09:50:51;;;;;;;9.85;2.92;;;;;26.90;93884.00;;;;7397396;19;20181;-73
2022/06/23 09:53:54;;;;;;;8.55;2.63;;;;;27.00;93881.00;;;;7392567;19;20537;-72
2022/06/23 09:56:31;;;;;;;7.65;2.63;;;;;27.50;93875.00;;;;7395205;19;20145;-72
2022/06/23 09:59:29;;;;;;;11.93;3.10;;;;;27.30;93872.00;;;;7391644;19;20161;-72
2022/06/23 10:02:34;;;;;;;12.63;3.55;;;;;27.90;93870.00;;;;7394684;19;20174;-73
2022/06/23 10:05:41;;;;;;;9.63;2.70;;;;;27.80;93874.00;;;;7392156;19;20241;-73
2022/06/23 10:08:43;;;;;;;10.85;2.80;;;;;27.90;93868.00;;;;7393732;19;20152;-75
2022/06/23 10:11:54;;;;;;;8.95;2.70;;;;;27.70;93873.00;;;;7390878;19;20190;-73
2022/06/23 10:14:32;;;;;;;10.25;2.75;;;;;27.70;93870.00;;;;7392238;19;20121;-72
2022/06/23 10:17:34;;;;;;;10.57;2.95;;;;;27.70;93874.00;;;;7392079;19;20145;-73
2022/06/23 10:20:21;;;;;;;12.02;3.20;;;;;28.00;93870.00;;;;7395043;19;20185;-72
2022/06/23 10:23:21;;;;;;;7.07;3.08;;;;;28.40;93869.00;;;;7393296;19;20448;-73
2022/06/23 10:26:03;;;;;;;9.13;2.78;;;;;28.50;93862.00;;;;7392568;19;20212;-73
2022/06/23 10:28:57;;;;;;;8.25;2.63;;;;;28.40;93868.00;;;;7399344;19;20172;-73
2022/06/23 10:31:57;;;;;;;11.82;3.03;;;;;28.80;93864.00;;;;7396352;19;20136;-74
2022/06/23 10:34:40;;;;;;;11.45;3.03;;;;;28.80;93863.00;;;;7398124;19;20485;-73
2022/06/23 10:37:35;;;;;;;7.95;2.90;;;;;28.50;93860.00;;;;7396307;19;20614;-73
2022/06/23 10:40:31;;;;;;;12.25;3.17;;;;;28.80;93852.00;;;;7398813;19;20155;-74
2022/06/23 10:43:44;;;;;;;9.27;2.75;;;;;29.70;93850.00;;;;7394313;19;20528;-74
2022/06/23 10:46:30;;;;;;;12.50;3.25;;;;;30.10;93858.00;;;;7396354;19;20129;-73
2022/06/23 10:49:35;;;;;;;12.85;3.58;;;;;29.80;93842.00;;;;7398520;19;20134;-73
2022/06/23 10:52:20;;;;;;;10.65;3.03;;;;;29.10;93854.00;;;;7398063;19;20144;-74
2022/06/23 10:55:35;;;;;;;8.63;2.67;;;;;29.70;93844.00;;;;7399574;19;20140;-73
2022/06/23 10:58:25;;;;;;;11.23;3.20;;;;;30.30;93838.00;;;;7395523;19;20144;-74
2022/06/23 11:01:05;;;;;;;13.43;3.10;;;;;30.00;93866.00;;;;7393645;19;20156;-73
2022/06/23 11:04:21;;;;;;;12.32;3.03;;;;;28.40;93862.00;;;;7394368;19;20165;-73
2022/06/23 11:07:14;;;;;;;9.32;2.85;;;;;28.40;93850.00;;;;7393896;19;20494;-75
2022/06/23 11:09:54;;;;;;;8.07;3.17;;;;;29.30;93842.00;;;;7391939;19;20148;-74
2022/06/23 11:12:27;;;;;;;10.82;3.38;;;;;30.30;93835.00;;;;7392184;19;20609;-73
2022/06/23 11:15:32;;;;;;;7.97;3.25;;;;;30.30;93847.00;;;;7390672;19;20621;-74
2022/06/23 11:18:21;;;;;;;13.35;3.45;;;;;29.70;93827.00;;;;7392223;19;20603;-74
2022/06/23 11:21:05;;;;;;;13.00;3.58;;;;;30.00;93825.00;;;;7393494;19;20165;-74
2022/06/23 11:23:56;;;;;;;11.57;3.45;;;;;29.60;93843.00;;;;7392262;19;20175;-75
2022/06/23 11:26:42;;;;;;;11.25;3.63;;;;;28.30;93833.00;;;;7393772;19;20161;-74
2022/06/23 11:29:13;;;;;;;10.82;2.70;;;;;29.00;93820.00;;;;7392411;19;20509;-75
2022/06/23 11:32:13;;;;;;;6.43;2.50;;;;;29.40;93819.00;;;;7391697;19;20152;-73
2022/06/23 11:35:13;;;;;;;10.90;3.28;;;;;29.90;93807.00;;;;7393590;19;20149;-73
2022/06/23 11:38:09;;;;;;;12.13;3.30;;;;;28.70;93815.00;;;;7391198;19;20663;-73
2022/06/23 11:40:52;;;;;;;8.68;3.22;;;;;29.60;93816.00;;;;7393487;19;20607;-73
2022/06/23 11:43:55;;;;;;;12.95;3.20;;;;;30.30;93816.00;;;;7389936;19;20148;-74
2022/06/23 11:46:28;;;;;;;16.40;3.20;;;;;30.40;93834.00;;;;7390857;19;20614;-73
2022/06/23 11:49:46;;;;;;;10.48;2.70;;;;;29.40;93808.00;;;;7391974;19;20133;-74
2022/06/23 11:52:53;;;;;;;7.85;3.05;;;;;29.80;93809.00;;;;7390630;19;20148;-73
2022/06/23 11:55:48;;;;;;;12.85;3.60;;;;;30.60;93796.00;;;;7391960;19;20155;-74
2022/06/23 11:58:56;;;;;;;11.25;3.22;;;;;31.00;93802.00;;;;7392719;19;20503;-74
2022/06/23 12:01:32;;;;;;;9.88;3.13;;;;;31.00;93802.00;;;;7393888;19;20133;-73
2022/06/23 12:04:38;;;;;;;10.93;3.00;;;;;30.50;93800.00;;;;7392673;19;20177;-75
2022/06/23 12:07:48;;;;;;;11.68;2.97;;;;;30.10;93793.00;;;;7388972;19;20223;-72
2022/06/23 12:10:27;;;;;;;10.75;2.90;;;;;30.30;93802.00;;;;7391975;19;20555;-73
2022/06/23 12:13:09;;;;;;;10.55;2.55;;;;;30.60;93791.00;;;;7390387;19;20140;-73
2022/06/23 12:15:44;;;;;;;13.98;2.50;;;;;30.40;93811.00;;;;7387974;19;20144;-73
2022/06/23 12:18:31;;;;;;;13.77;2.97;;;;;28.70;93805.00;;;;7389111;19;20636;-74
2022/06/23 12:21:30;;;;;;;11.50;2.80;;;;;28.10;93806.00;;;;7389188;19;20607;-73
2022/06/23 12:24:26;;;;;;;9.73;2.92;;;;;28.70;93813.00;;;;7391116;19;20149;-74
2022/06/23 12:27:24;;;;;;;9.48;3.00;;;;;28.40;93783.00;;;;7394198;19;20145;-73
2022/06/23 12:30:11;;;;;;;9.93;2.90;;;;;29.10;93792.00;;;;7397878;19;20144;-73
2022/06/23 12:33:03;;;;;;;9.50;2.80;;;;;29.60;93779.00;;;;7399821;19;20495;-73
2022/06/23 12:35:55;;;;;;;11.32;2.88;;;;;30.10;93775.00;;;;7396678;19;20554;-73
2022/06/23 12:38:30;;;;;;;8.82;3.15;;;;;30.70;93761.00;;;;7397140;19;20160;-72
2022/06/23 12:41:29;;;;;;;11.15;3.25;;;;;30.70;93777.00;;;;7396100;19;20661;-74
2022/06/23 12:44:18;;;;;;;7.32;2.85;;;;;29.00;93792.00;;;;7397923;19;20129;-76
2022/06/23 12:46:59;;;;;;;11.32;2.90;;;;;29.00;93785.00;;;;7393153;19;20141;-73
2022/06/23 12:49:34;;;;;;;8.23;2.58;;;;;29.00;93766.00;;;;7397957;19;20653;-73
2022/06/23 12:52:42;;;;;;;9.82;2.58;;;;;30.10;93741.00;;;;7398217;19;20129;-74
2022/06/23 12:55:37;;;;;;;8.57;3.00;;;;;30.70;93748.00;;;;7395055;19;20936;-74
2022/06/23 12:58:23;;;;;;;12.38;2.90;;;;;30.20;93736.00;;;;7396283;19;20168;-72
2022/06/23 13:01:00;;;;;;;12.30;2.70;;;;;30.40;93746.00;;;;7398408;19;20665;-72
2022/06/23 13:03:47;;;;;;;7.20;2.60;;;;;31.00;93731.00;;;;7395236;19;20508;-73
2022/06/23 13:06:24;;;;;;;9.57;2.70;;;;;31.10;93728.00;;;;7392682;19;20129;-73
2022/06/23 13:09:13;;;;;;;11.73;3.35;;;;;31.10;93734.00;;;;7394674;19;20613;-72
2022/06/23 13:11:55;;;;;;;12.68;2.75;;;;;31.10;93740.00;;;;7393509;19;20199;-72
2022/06/23 13:14:49;;;;;;;8.05;3.10;;;;;31.10;93748.00;;;;7397627;19;20923;-73
2022/06/23 13:17:38;;;;;;;12.40;3.00;;;;;30.80;93734.00;;;;7393742;19;20467;-72
2022/06/23 13:20:19;;;;;;;6.20;2.40;;;;;31.00;93722.00;;;;7394365;19;20143;-73
2022/06/23 13:23:11;;;;;;;7.60;2.70;;;;;31.10;93716.00;;;;7397372;19;20256;-73
2022/06/23 13:26:15;;;;;;;9.18;2.72;;;;;31.70;93717.00;;;;7393924;19;20164;-74
2022/06/23 13:28:44;;;;;;;7.25;2.78;;;;;31.50;93713.00;;;;7398314;19;20509;-74
2022/06/23 13:31:28;;;;;;;5.68;2.67;;;;;31.30;93730.00;;;;7394024;19;20148;-72
2022/06/23 13:34:16;;;;;;;5.65;2.38;;;;;30.20;93732.00;;;;7397078;19;20203;-73
2022/06/23 13:37:17;;;;;;;10.02;2.70;;;;;29.00;93735.00;;;;7395292;19;20152;-73
2022/06/23 13:40:08;;;;;;;7.03;2.25;;;;;28.70;93719.00;;;;7394997;19;20136;-72
2022/06/23 13:43:07;;;;;;;6.22;2.30;;;;;29.90;93713.00;;;;7395803;19;20149;-73
2022/06/23 13:46:02;;;;;;;9.98;2.88;;;;;30.40;93703.00;;;;7393909;19;20544;-73
2022/06/23 13:48:48;;;;;;;8.68;2.45;;;;;30.80;93700.00;;;;7396793;19;20210;-73
2022/06/23 13:51:33;;;;;;;9.30;2.72;;;;;31.10;93684.00;;;;7393994;19;20136;-73
2022/06/23 13:54:18;;;;;;;6.85;2.50;;;;;30.50;93689.00;;;;7395423;19;20144;-74
2022/06/23 13:57:09;;;;;;;9.73;2.70;;;;;30.20;93690.00;;;;7394955;19;20140;-73
2022/06/23 13:59:52;;;;;;;10.48;2.88;;;;;30.30;93684.00;;;;7394590;19;20200;-73
2022/06/23 14:02:52;;;;;;;7.53;2.40;;;;;30.40;93681.00;;;;7394632;19;20131;-73